Dakota Dunes, South Dakota
Current Conditions -  °F | °C
As of 8:59 PM on Thursday 18 Dec 2014 (Local Time) from KSUX Reporting Station
Haze Haze  
Wind Chill: 23°   Ceiling: 1400
Heat Index: 30°   Visibility: 6mi
Dew Point: 26°   Wind: 7mph
Humidity: 85%   Direction: 160°SSE
Pressure: 30.21"   Gusts: NA
Location:  42.532°N, 96.5446°W
Report Text: KSUX 190259Z AUTO 16006KT 6SM BR OVC014 M01/M03 A3021 RMK AO2 T10111033
Loading
Personal Weather Stations






























Interactive Weather Map New forecast layout! Learn more

10-Day Weather Forecast

Advertisements
Track Severe Weather on mobile